Circleville, New York
Current Conditions -  °F | °C
As of 3:15 PM on Thursday 18 Dec 2014 (Local Time) from KMGJ Reporting Station
Overcast Overcast  
Wind Chill: 30°   Ceiling: 2900
Heat Index: 37°   Visibility: 10mi
Dew Point: 26°   Wind: 10mph
Humidity: 65%   Direction: 320°NW
Pressure: 29.93"   Gusts: NA
Location:  41.51°N, 74.38°W
Report Text: KMGJ 182015Z AUTO 32009KT 10SM OVC029 03/M03 A2993 RMK AO2 T00281033 TSNO
Loading
Personal Weather Stations






























Interactive Weather Map New forecast layout! Learn more

10-Day Weather Forecast

Advertisements
Track Severe Weather on mobile